Princeton/Rocky Hill (39N)
Princeton, NJ
Field Elevation: 128
Lat: 40°23.94N  Long: 74°39.54W
CTAF/Unicom Freq: 122.7250
   
     For Weather-by-Phone, call (609)-924-3901
Weather Advisories
4/21/2014 09:35 Z
Altimeter 30.24" Hg
Wind 320° @ 0 KT
Gusts --
Visibility 10 SM
Ceiling CLR
Temperature -1° C (30° F)
Dewpoint -3° C (27° F)
Relative Humidity 90%
Density Altitude --
Condensation Altitude --
  Wind and Runways
Indicated Runway = 28
History
 
 
More Info
All DigiWx sites map
 
NOAA Forecast
 
Airport IQ 5010
(OCNJ) Ocean City
(PN44) Upper Gwynedd Heliport
 
about DigiWx
 
FAA Disclaimer: The data displayed is for advisory purposes only and is not to be used for flight planning or operations. For official data, please call (609)-924-3901 to hear the current automated AWOS voice message.
  METAR 39N 210935Z AUTO 32000KT 10SM CLR M01/M03 A3024